Time;durP1;ratioP1;P1;durP2;ratioP2;P2;SDS_P1;SDS_P2;PMS_P1;PMS_P2;Temp;Humidity;BMP_temperature;BMP_pressure;BME280_temperature;BME280_humidity;BME280_pressure;Samples;Min_cycle;Max_cycle;Signal;HPM_P1;HPM_P2
2023/03/31 00:01:32;;;;;;;6.82;1.85;;;12.40;99.90;;;;;;4986069;28;20032;-71
2023/03/31 00:04:05;;;;;;;8.48;2.80;;;12.50;99.90;;;;;;4985350;28;20454;-72
2023/03/31 00:06:40;;;;;;;15.00;2.08;;;12.50;99.90;;;;;;4981782;28;20037;-72
2023/03/31 00:09:12;;;;;;;9.55;2.10;;;12.40;99.90;;;;;;4978623;28;20038;-73
2023/03/31 00:11:40;;;;;;;12.55;2.33;;;12.40;99.90;;;;;;4967062;28;20037;-72
2023/03/31 00:14:06;;;;;;;7.50;1.83;;;12.40;99.90;;;;;;4977626;28;20054;-72
2023/03/31 00:16:36;;;;;;;6.97;1.83;;;12.40;99.90;;;;;;4967313;28;20068;-72
2023/03/31 00:19:03;;;;;;;6.70;1.83;;;12.40;99.90;;;;;;4979919;28;20026;-72
2023/03/31 00:21:32;;;;;;;6.97;1.95;;;12.40;99.90;;;;;;4988301;28;20035;-72
2023/03/31 00:24:17;;;;;;;10.98;2.30;;;12.30;99.90;;;;;;4991365;28;20158;-72
2023/03/31 00:26:43;;;;;;;6.60;1.65;;;12.30;99.90;;;;;;4992212;28;20499;-72
2023/03/31 00:29:12;;;;;;;9.60;1.95;;;12.30;99.90;;;;;;4992609;28;20022;-72
2023/03/31 00:31:37;;;;;;;6.65;2.20;;;12.30;99.90;;;;;;4989188;28;20026;-72
2023/03/31 00:34:04;;;;;;;8.02;2.67;;;12.20;99.90;;;;;;4992654;28;20053;-72
2023/03/31 00:36:30;;;;;;;4.30;2.30;;;12.10;99.90;;;;;;5002856;28;20027;-73
2023/03/31 00:39:07;;;;;;;5.47;2.20;;;12.10;99.90;;;;;;4990088;28;20034;-72
2023/03/31 00:41:35;;;;;;;4.20;1.52;;;12.10;99.90;;;;;;4998945;28;20558;-72
2023/03/31 00:44:11;;;;;;;9.23;2.50;;;12.10;99.90;;;;;;4993963;28;20026;-72
2023/03/31 00:46:55;;;;;;;7.15;1.92;;;12.10;99.90;;;;;;4991932;28;20502;-73
2023/03/31 00:49:43;;;;;;;7.82;2.10;;;12.10;99.90;;;;;;4990167;28;20050;-73
2023/03/31 00:52:15;;;;;;;10.38;2.20;;;12.10;99.90;;;;;;4994809;28;20094;-72
2023/03/31 00:54:43;;;;;;;7.25;2.30;;;12.10;99.90;;;;;;4992493;28;20093;-71
2023/03/31 00:57:10;;;;;;;8.77;2.20;;;12.20;99.90;;;;;;4987988;28;20077;-72
2023/03/31 01:00:08;;;;;;;9.40;2.47;;;12.20;99.90;;;;;;4992077;28;20052;-72
2023/03/31 01:02:40;;;;;;;9.73;2.15;;;12.20;99.90;;;;;;4988836;28;20498;-73
2023/03/31 01:05:09;;;;;;;5.13;1.67;;;12.30;99.90;;;;;;4989644;28;20033;-72
2023/03/31 01:07:44;;;;;;;8.18;1.80;;;12.30;99.90;;;;;;4987890;28;20018;-72
2023/03/31 01:10:11;;;;;;;12.07;2.28;;;12.30;99.90;;;;;;4985242;28;20067;-72
2023/03/31 01:12:48;;;;;;;4.40;1.73;;;12.30;99.90;;;;;;4981904;28;20038;-73
2023/03/31 01:15:15;;;;;;;7.15;1.80;;;12.30;99.90;;;;;;4983365;28;20671;-72
2023/03/31 01:17:43;;;;;;;6.10;1.77;;;12.30;99.90;;;;;;4981511;28;20530;-72
2023/03/31 01:20:24;;;;;;;8.57;2.67;;;12.30;99.90;;;;;;4979693;28;20026;-73
2023/03/31 01:23:27;;;;;;;5.95;1.85;;;12.30;99.90;;;;;;4984407;28;20106;-73
2023/03/31 01:26:13;;;;;;;7.55;1.80;;;12.30;99.90;;;;;;4989658;28;20038;-72
2023/03/31 01:29:20;;;;;;;10.52;2.08;;;12.30;99.90;;;;;;5002056;28;20533;-74
2023/03/31 01:32:26;;;;;;;3.95;1.50;;;12.30;99.90;;;;;;4977860;28;20026;-72
2023/03/31 01:35:08;;;;;;;7.40;1.83;;;12.30;99.90;;;;;;4992092;28;20031;-73
2023/03/31 01:38:27;;;;;;;8.40;1.73;;;12.30;99.90;;;;;;4988455;28;20026;-73
2023/03/31 01:41:05;;;;;;;7.20;1.90;;;12.30;99.90;;;;;;4948200;28;20034;-73
2023/03/31 01:43:51;;;;;;;5.65;2.25;;;12.30;99.90;;;;;;4988040;28;20032;-72
2023/03/31 01:46:30;;;;;;;4.43;1.98;;;12.40;99.90;;;;;;4986453;28;20368;-73
2023/03/31 01:49:18;;;;;;;8.65;2.28;;;12.40;99.90;;;;;;4993077;28;20076;-73
2023/03/31 01:51:44;;;;;;;8.40;2.28;;;12.40;99.90;;;;;;4991023;28;20027;-73
2023/03/31 01:54:21;;;;;;;8.77;1.92;;;12.40;99.90;;;;;;4993907;28;20034;-74
2023/03/31 01:57:12;;;;;;;16.95;2.30;;;12.40;99.90;;;;;;4989853;28;20509;-73
2023/03/31 01:59:57;;;;;;;8.93;2.67;;;12.40;99.90;;;;;;4986957;28;20045;-73
2023/03/31 02:02:38;;;;;;;5.35;2.28;;;12.30;99.90;;;;;;4986612;28;20026;-73
2023/03/31 02:05:19;;;;;;;7.43;2.33;;;12.30;99.90;;;;;;4987376;28;20026;-72
2023/03/31 02:07:55;;;;;;;6.43;2.53;;;12.20;99.90;;;;;;4986963;28;20427;-73
2023/03/31 02:10:24;;;;;;;6.40;1.83;;;12.20;99.90;;;;;;4985107;28;20049;-72
2023/03/31 02:12:51;;;;;;;5.80;2.25;;;12.20;99.90;;;;;;4988611;28;20464;-72
2023/03/31 02:15:25;;;;;;;9.25;2.20;;;12.10;99.90;;;;;;4986746;28;20837;-72
2023/03/31 02:17:58;;;;;;;8.68;2.85;;;12.10;99.90;;;;;;4988204;28;20022;-72
2023/03/31 02:20:26;;;;;;;9.50;2.70;;;12.10;99.90;;;;;;4985648;28;20089;-71
2023/03/31 02:22:54;;;;;;;5.95;2.38;;;12.00;99.90;;;;;;4989596;28;20042;-72
2023/03/31 02:25:24;;;;;;;5.82;2.13;;;11.90;99.90;;;;;;4989548;28;20193;-72
2023/03/31 02:27:54;;;;;;;13.57;2.30;;;11.80;99.90;;;;;;4989558;28;20068;-72
2023/03/31 02:30:20;;;;;;;8.35;2.40;;;11.70;99.90;;;;;;4985661;28;20054;-74
2023/03/31 02:32:49;;;;;;;9.60;3.42;;;11.60;99.90;;;;;;4989362;28;20550;-73
2023/03/31 02:35:17;;;;;;;9.98;2.60;;;11.60;99.90;;;;;;4990222;28;20566;-73
2023/03/31 02:37:44;;;;;;;8.27;3.03;;;11.60;99.90;;;;;;5006656;28;20722;-72
2023/03/31 02:40:21;;;;;;;9.43;2.58;;;11.50;99.90;;;;;;4986207;28;20039;-74
2023/03/31 02:42:48;;;;;;;7.65;3.17;;;11.50;99.90;;;;;;4988336;28;20835;-71
2023/03/31 02:45:32;;;;;;;9.45;3.05;;;11.50;99.90;;;;;;4987102;28;20121;-71
2023/03/31 02:47:58;;;;;;;8.27;3.13;;;11.50;99.90;;;;;;4989505;28;20218;-72
2023/03/31 02:50:32;;;;;;;14.02;3.03;;;11.50;99.90;;;;;;4990496;28;20101;-73
2023/03/31 02:53:06;;;;;;;;;;;11.40;99.90;;;;;;4987761;28;20045;-74
2023/03/31 02:55:47;;;;;;;8.65;2.63;;;11.40;99.90;;;;;;4987973;28;21577;-73
2023/03/31 02:58:38;;;;;;;9.75;3.20;;;11.40;99.90;;;;;;4983029;28;20533;-74
2023/03/31 03:01:13;;;;;;;8.07;2.88;;;11.40;99.90;;;;;;4979788;28;20136;-73
2023/03/31 03:03:59;;;;;;;9.38;3.00;;;11.40;99.90;;;;;;4985100;28;20023;-74
2023/03/31 03:06:42;;;;;;;7.35;3.53;;;11.30;99.90;;;;;;4989525;28;20014;-73
2023/03/31 03:09:23;;;;;;;12.40;3.22;;;11.30;99.90;;;;;;4985400;28;20052;-73
2023/03/31 03:12:04;;;;;;;9.00;2.97;;;11.30;99.90;;;;;;4991914;28;20403;-73
2023/03/31 03:14:48;;;;;;;9.52;3.40;;;11.30;99.90;;;;;;4985799;28;20053;-71
2023/03/31 03:17:25;;;;;;;9.00;3.42;;;11.20;99.90;;;;;;4985661;28;20442;-73
2023/03/31 03:19:58;;;;;;;7.05;3.22;;;11.20;99.90;;;;;;4991072;28;20145;-72
2023/03/31 03:22:23;;;;;;;7.30;2.78;;;11.20;99.90;;;;;;5000456;28;20029;-72
2023/03/31 03:24:50;;;;;;;10.18;3.80;;;11.10;99.90;;;;;;4990364;28;20030;-71
2023/03/31 03:27:16;;;;;;;7.38;3.30;;;11.10;99.90;;;;;;4991472;28;20027;-74
2023/03/31 03:29:42;;;;;;;5.72;2.95;;;11.10;99.90;;;;;;4984614;28;20014;-75
2023/03/31 03:32:08;;;;;;;8.70;2.80;;;11.10;99.90;;;;;;4986722;28;20490;-73
2023/03/31 03:34:33;;;;;;;10.15;3.53;;;11.00;99.90;;;;;;4988429;28;20034;-73
2023/03/31 03:36:59;;;;;;;7.50;2.83;;;11.00;99.90;;;;;;4988224;28;20086;-73
2023/03/31 03:39:28;;;;;;;7.28;3.08;;;11.00;99.90;;;;;;4986625;28;20044;-74
2023/03/31 03:41:53;;;;;;;9.30;3.03;;;11.00;99.90;;;;;;4987430;28;20030;-73
2023/03/31 03:44:19;;;;;;;6.90;3.17;;;11.00;99.90;;;;;;4984525;28;20105;-73
2023/03/31 03:46:45;;;;;;;11.55;3.15;;;11.00;99.90;;;;;;4984746;28;20030;-72
2023/03/31 03:49:17;;;;;;;9.23;2.95;;;11.00;99.90;;;;;;5002734;28;20471;-73
2023/03/31 03:51:42;;;;;;;7.13;2.55;;;11.00;99.90;;;;;;4992884;28;20023;-73
2023/03/31 03:54:11;;;;;;;8.90;2.70;;;10.90;99.90;;;;;;4995450;28;20037;-72
2023/03/31 03:56:37;;;;;;;8.00;2.90;;;10.90;99.90;;;;;;4982657;28;20034;-75
2023/03/31 03:59:03;;;;;;;8.23;3.33;;;10.80;99.90;;;;;;4985572;28;20443;-72
2023/03/31 04:01:28;;;;;;;11.50;3.17;;;10.80;99.90;;;;;;4990947;28;20728;-73
2023/03/31 04:03:54;;;;;;;9.90;3.13;;;10.70;99.90;;;;;;4990021;28;20396;-73
2023/03/31 04:06:20;;;;;;;9.27;2.53;;;10.70;99.90;;;;;;4995394;28;20551;-73
2023/03/31 04:08:45;;;;;;;5.68;2.55;;;10.60;99.90;;;;;;5002207;23;20020;-77
2023/03/31 04:11:17;;;;;;;8.43;3.38;;;10.60;99.90;;;;;;4992959;28;20025;-77
2023/03/31 04:13:43;;;;;;;6.25;2.97;;;10.50;99.90;;;;;;4989750;28;20064;-78
2023/03/31 04:16:09;;;;;;;8.30;2.90;;;10.50;99.90;;;;;;4985770;28;20534;-78
2023/03/31 04:18:36;;;;;;;6.13;3.10;;;10.50;99.90;;;;;;5006257;28;20034;-77
2023/03/31 04:21:05;;;;;;;8.50;3.03;;;10.50;99.90;;;;;;5012273;28;20293;-77
2023/03/31 04:23:41;;;;;;;8.52;2.80;;;10.50;99.90;;;;;;5009899;28;20038;-76
2023/03/31 04:26:08;;;;;;;7.00;3.25;;;10.50;99.90;;;;;;5010299;28;20455;-77
2023/03/31 04:28:35;;;;;;;9.07;3.92;;;10.50;99.90;;;;;;5004308;28;20080;-76
2023/03/31 04:31:02;;;;;;;10.70;3.03;;;10.50;99.90;;;;;;5010547;28;20037;-77
2023/03/31 04:33:27;;;;;;;7.60;2.72;;;10.50;99.90;;;;;;5009801;28;20034;-77
2023/03/31 04:35:53;;;;;;;7.07;3.13;;;10.50;99.90;;;;;;5005172;28;20030;-76
2023/03/31 04:38:25;;;;;;;7.68;3.25;;;10.60;99.90;;;;;;5012450;28;20025;-76
2023/03/31 04:40:52;;;;;;;8.70;3.45;;;10.60;99.90;;;;;;5005961;28;20508;-76
2023/03/31 04:43:20;;;;;;;11.40;3.42;;;10.60;99.90;;;;;;5006247;28;20030;-78
2023/03/31 04:45:46;;;;;;;7.47;2.97;;;10.60;99.90;;;;;;5012640;28;20057;-80
2023/03/31 04:48:11;;;;;;;9.35;3.13;;;10.60;99.90;;;;;;5022334;28;20036;-76
2023/03/31 04:50:37;;;;;;;9.13;3.30;;;10.60;99.90;;;;;;5010315;28;20026;-77
2023/03/31 04:53:04;;;;;;;10.27;3.55;;;10.70;99.90;;;;;;5007245;28;20382;-77
2023/03/31 04:55:29;;;;;;;8.00;3.33;;;10.70;99.90;;;;;;5007078;28;20046;-78
2023/03/31 04:57:55;;;;;;;9.45;3.97;;;10.70;99.90;;;;;;5026305;28;20121;-77
2023/03/31 05:00:21;;;;;;;11.38;3.65;;;10.70;99.90;;;;;;5009167;28;20062;-77
2023/03/31 05:02:47;;;;;;;10.90;3.58;;;10.70;99.90;;;;;;5011829;28;20026;-77
2023/03/31 05:05:13;;;;;;;10.48;3.92;;;10.80;99.90;;;;;;5007450;28;20025;-78
2023/03/31 05:07:39;;;;;;;10.02;3.60;;;10.80;99.90;;;;;;5008315;28;20042;-76
2023/03/31 05:10:06;;;;;;;10.13;3.38;;;10.80;99.90;;;;;;5004007;28;20698;-76
2023/03/31 05:12:35;;;;;;;6.15;3.35;;;10.80;99.90;;;;;;5009383;28;20034;-77
2023/03/31 05:15:03;;;;;;;8.73;3.42;;;10.80;99.90;;;;;;5014153;28;20030;-76
2023/03/31 05:17:31;;;;;;;7.35;3.75;;;10.80;99.90;;;;;;5008004;28;20038;-76
2023/03/31 05:19:57;;;;;;;12.15;4.82;;;10.80;99.90;;;;;;4955777;28;20048;-69
2023/03/31 05:22:24;;;;;;;9.52;4.43;;;10.80;99.90;;;;;;5017055;28;20497;-69
2023/03/31 05:24:49;;;;;;;10.07;4.45;;;10.70;99.90;;;;;;5019389;28;20116;-69
2023/03/31 05:27:15;;;;;;;11.52;4.50;;;10.70;99.90;;;;;;5003292;28;20112;-69
2023/03/31 05:29:41;;;;;;;11.30;4.60;;;10.70;99.90;;;;;;5006463;28;20037;-77
2023/03/31 05:32:07;;;;;;;10.48;5.30;;;10.80;99.90;;;;;;5014304;28;20442;-76
2023/03/31 05:34:32;;;;;;;10.40;4.05;;;10.80;99.90;;;;;;5013520;28;20087;-78
2023/03/31 05:36:58;;;;;;;13.27;5.20;;;10.80;99.90;;;;;;5026088;28;20061;-77
2023/03/31 05:39:31;;;;;;;10.68;4.90;;;10.70;99.90;;;;;;5009320;28;20026;-78
2023/03/31 05:42:00;;;;;;;10.13;4.43;;;10.70;99.90;;;;;;5013882;28;20144;-79
2023/03/31 05:44:28;;;;;;;12.90;4.57;;;10.70;99.90;;;;;;5014845;28;20030;-79
2023/03/31 05:46:54;;;;;;;14.27;5.05;;;10.70;99.90;;;;;;5016810;28;20030;-79
2023/03/31 05:49:22;;;;;;;11.23;4.75;;;10.70;99.90;;;;;;5015731;28;20022;-80
2023/03/31 05:51:47;;;;;;;9.90;4.43;;;10.70;99.90;;;;;;5013872;28;20026;-79
2023/03/31 05:54:13;;;;;;;14.05;5.82;;;10.70;99.90;;;;;;5018909;28;20037;-78
2023/03/31 05:56:39;;;;;;;12.65;5.63;;;10.70;99.90;;;;;;5012026;28;20087;-78
2023/03/31 05:59:07;;;;;;;11.18;5.18;;;10.70;99.90;;;;;;5012729;28;20399;-78
2023/03/31 06:01:33;;;;;;;16.05;6.25;;;10.60;99.90;;;;;;5010694;28;20030;-78
2023/03/31 06:03:58;;;;;;;14.05;5.80;;;10.60;99.90;;;;;;5008161;28;20051;-78
2023/03/31 06:06:24;;;;;;;10.80;4.78;;;10.60;99.90;;;;;;5013094;28;20029;-77
2023/03/31 06:08:51;;;;;;;15.35;5.28;;;10.60;99.90;;;;;;5010145;28;20026;-77
2023/03/31 06:11:19;;;;;;;11.82;5.30;;;10.60;99.90;;;;;;5009645;28;20454;-77
2023/03/31 06:13:48;;;;;;;11.90;5.70;;;10.50;99.90;;;;;;5013392;28;20059;-77
2023/03/31 06:16:16;;;;;;;14.93;6.13;;;10.60;99.90;;;;;;5009969;28;20053;-79
2023/03/31 06:18:41;;;;;;;15.27;5.53;;;10.60;99.90;;;;;;5016040;28;20030;-79
2023/03/31 06:21:11;;;;;;;16.65;5.72;;;10.60;99.90;;;;;;5014120;28;20391;-77
2023/03/31 06:23:36;;;;;;;9.30;5.57;;;10.60;99.90;;;;;;5009258;28;20026;-78
2023/03/31 06:26:06;;;;;;;12.73;4.65;;;10.60;99.90;;;;;;5011519;28;20040;-76
2023/03/31 06:28:32;;;;;;;13.45;5.10;;;10.60;99.90;;;;;;5022400;28;20033;-76
2023/03/31 06:31:10;;;;;;;14.65;5.30;;;10.60;99.90;;;;;;5011322;28;20018;-76
2023/03/31 06:33:36;;;;;;;9.93;4.85;;;10.60;99.90;;;;;;5011885;28;20037;-76
2023/03/31 06:36:04;;;;;;;11.43;4.65;;;10.60;99.90;;;;;;5003841;28;20037;-77
2023/03/31 06:38:30;;;;;;;13.77;5.03;;;10.60;99.90;;;;;;5024307;28;20030;-77
2023/03/31 06:40:56;;;;;;;16.52;5.43;;;10.60;99.90;;;;;;5011445;28;20188;-77
2023/03/31 06:43:21;;;;;;;15.18;6.05;;;10.60;99.90;;;;;;5009118;28;20568;-76
2023/03/31 06:45:47;;;;;;;15.85;5.20;;;10.60;99.90;;;;;;5009851;28;20055;-76
2023/03/31 06:48:13;;;;;;;14.80;5.28;;;10.60;99.90;;;;;;5007203;28;20229;-77
2023/03/31 06:50:40;;;;;;;9.70;5.20;;;10.60;99.90;;;;;;5010817;28;20092;-77
2023/03/31 06:53:07;;;;;;;11.10;5.55;;;10.60;99.90;;;;;;5010979;28;20033;-77
2023/03/31 06:55:33;;;;;;;15.07;5.13;;;10.60;99.90;;;;;;5013132;28;20025;-76
2023/03/31 06:57:59;;;;;;;9.82;5.72;;;10.60;99.90;;;;;;5007106;28;20040;-76
2023/03/31 07:00:31;;;;;;;15.95;5.57;;;10.50;99.90;;;;;;5009509;28;20030;-78
2023/03/31 07:02:57;;;;;;;11.02;5.28;;;10.40;99.90;;;;;;5009070;28;20544;-77
2023/03/31 07:05:27;;;;;;;9.73;4.30;;;10.20;99.90;;;;;;5007889;28;20018;-80
2023/03/31 07:07:54;;;;;;;8.25;3.13;;;10.10;99.90;;;;;;5021888;28;20076;-80
2023/03/31 07:10:20;;;;;;;7.32;2.88;;;10.00;99.90;;;;;;5020149;28;20042;-79
2023/03/31 07:12:46;;;;;;;8.30;2.40;;;10.00;99.90;;;;;;5016694;28;20037;-79
2023/03/31 07:15:11;;;;;;;5.00;2.60;;;10.00;99.90;;;;;;5018741;28;20029;-79
2023/03/31 07:17:40;;;;;;;3.60;2.40;;;9.90;99.90;;;;;;5013478;28;20051;-77
2023/03/31 07:20:14;;;;;;;4.85;2.13;;;9.90;99.90;;;;;;5019145;28;20106;-79
2023/03/31 07:22:41;;;;;;;4.75;1.98;;;9.90;99.90;;;;;;5020458;28;20034;-78
2023/03/31 07:25:09;;;;;;;5.45;2.47;;;9.80;99.90;;;;;;5021792;28;20049;-79
2023/03/31 07:27:36;;;;;;;3.83;1.88;;;9.80;99.90;;;;;;5023630;28;20091;-79
2023/03/31 07:30:11;;;;;;;4.05;2.00;;;9.80;99.90;;;;;;5014079;28;20087;-79
2023/03/31 07:32:39;;;;;;;3.22;1.92;;;9.90;99.90;;;;;;5018252;28;20085;-80
2023/03/31 07:35:07;;;;;;;4.88;2.25;;;9.90;99.90;;;;;;5014178;28;20040;-78
2023/03/31 07:37:45;;;;;;;3.47;1.85;;;9.90;99.90;;;;;;5019077;28;20532;-78
2023/03/31 07:40:17;;;;;;;3.88;1.73;;;10.00;99.90;;;;;;5021680;28;20026;-80
2023/03/31 07:42:43;;;;;;;4.43;2.03;;;10.00;99.90;;;;;;5023565;28;20090;-79
2023/03/31 07:45:09;;;;;;;3.03;1.63;;;10.10;99.90;;;;;;5019945;28;20026;-79
2023/03/31 07:47:35;;;;;;;2.15;1.25;;;10.10;99.90;;;;;;5030495;28;20027;-78
2023/03/31 07:50:02;;;;;;;5.47;1.35;;;10.20;99.90;;;;;;5023688;28;20128;-79
2023/03/31 07:52:27;;;;;;;2.42;0.90;;;10.20;99.90;;;;;;5022775;28;20541;-78
2023/03/31 07:54:53;;;;;;;5.95;1.20;;;10.30;99.90;;;;;;5022093;28;20075;-78
2023/03/31 07:57:19;;;;;;;2.53;1.00;;;10.30;99.90;;;;;;5023502;28;20116;-78
2023/03/31 07:59:45;;;;;;;2.38;0.90;;;10.40;99.90;;;;;;5015858;28;20386;-77
2023/03/31 08:02:13;;;;;;;2.22;1.30;;;10.40;99.90;;;;;;5015856;28;20445;-78
2023/03/31 08:04:41;;;;;;;1.83;0.98;;;10.50;99.90;;;;;;5019404;28;20026;-78
2023/03/31 08:07:11;;;;;;;2.03;0.80;;;10.60;99.90;;;;;;5017264;28;20029;-78
2023/03/31 08:09:38;;;;;;;1.52;0.80;;;10.60;99.90;;;;;;5017718;28;20029;-78
2023/03/31 08:12:04;;;;;;;1.77;0.63;;;10.70;99.90;;;;;;5016107;28;20030;-79
2023/03/31 08:14:39;;;;;;;1.88;0.70;;;10.80;99.90;;;;;;5017788;28;21171;-78
2023/03/31 08:17:05;;;;;;;3.75;0.80;;;11.00;99.90;;;;;;5015724;28;20025;-77
2023/03/31 08:19:31;;;;;;;1.33;0.68;;;11.10;99.90;;;;;;5018357;28;20034;-77
2023/03/31 08:21:56;;;;;;;1.15;0.40;;;11.20;99.90;;;;;;5017652;28;20030;-77
2023/03/31 08:24:25;;;;;;;2.63;0.68;;;11.30;99.90;;;;;;5017390;28;20026;-77
2023/03/31 08:26:54;;;;;;;2.58;0.30;;;11.40;99.90;;;;;;5018799;28;20386;-77
2023/03/31 08:29:20;;;;;;;1.55;0.43;;;11.50;99.90;;;;;;5016454;28;20097;-77
2023/03/31 08:31:46;;;;;;;1.15;0.47;;;11.60;99.90;;;;;;5031040;28;20410;-78
2023/03/31 08:34:11;;;;;;;1.02;0.50;;;11.70;99.90;;;;;;5018192;28;20030;-77
2023/03/31 08:36:37;;;;;;;2.15;0.60;;;11.90;99.90;;;;;;5018830;28;20573;-77
2023/03/31 08:39:03;;;;;;;1.08;0.40;;;11.90;99.90;;;;;;5021519;28;20025;-77
2023/03/31 08:41:44;;;;;;;1.48;0.40;;;12.00;99.90;;;;;;5020236;28;20026;-78
2023/03/31 08:44:20;;;;;;;0.80;0.47;;;12.20;99.90;;;;;;5018483;28;20022;-78
2023/03/31 08:46:51;;;;;;;2.85;0.50;;;12.30;99.90;;;;;;5031895;28;20143;-78
2023/03/31 08:49:19;;;;;;;0.95;0.50;;;12.30;99.90;;;;;;5022253;28;20029;-78
2023/03/31 08:51:50;;;;;;;11.27;0.98;;;12.40;99.90;;;;;;5016408;28;20033;-81
2023/03/31 08:54:33;;;;;;;3.03;0.75;;;12.50;99.90;;;;;;5032957;28;20084;-80
2023/03/31 08:57:10;;;;;;;3.03;0.60;;;12.60;99.90;;;;;;5012921;28;20022;-80
2023/03/31 08:59:43;;;;;;;1.65;0.70;;;12.60;99.90;;;;;;5016301;28;20473;-81
2023/03/31 09:02:40;;;;;;;0.95;0.50;;;12.80;99.90;;;;;;5016886;28;20033;-80
2023/03/31 09:05:37;;;;;;;1.52;0.50;;;12.80;99.90;;;;;;5014078;28;20065;-80
2023/03/31 09:08:20;;;;;;;0.75;0.47;;;12.90;99.90;;;;;;5018943;28;20471;-80
2023/03/31 09:10:58;;;;;;;1.17;0.50;;;13.00;99.90;;;;;;5015607;28;20053;-79
2023/03/31 09:13:48;;;;;;;1.45;0.60;;;13.10;99.90;;;;;;5020549;28;20030;-79
2023/03/31 09:16:21;;;;;;;1.92;0.40;;;13.10;99.90;;;;;;5008014;28;20026;-79
2023/03/31 09:18:46;;;;;;;2.25;0.43;;;13.10;99.90;;;;;;5016290;28;20434;-80
2023/03/31 09:21:32;;;;;;;2.15;0.60;;;13.10;99.90;;;;;;5011545;28;20072;-79
2023/03/31 09:24:01;;;;;;;2.25;0.60;;;13.10;99.90;;;;;;5014892;28;20018;-79
2023/03/31 09:26:59;;;;;;;1.92;0.65;;;13.10;99.90;;;;;;5012911;28;20052;-80
2023/03/31 09:29:50;;;;;;;1.13;0.50;;;13.00;99.90;;;;;;5010115;28;20025;-79
2023/03/31 09:32:15;;;;;;;2.13;0.55;;;13.00;99.90;;;;;;5010236;28;20426;-79
2023/03/31 09:34:43;;;;;;;2.58;0.90;;;13.00;99.90;;;;;;5013572;28;20056;-79
2023/03/31 09:37:15;;;;;;;3.72;0.70;;;13.00;99.90;;;;;;5013481;28;20382;-80
2023/03/31 09:39:41;;;;;;;5.05;1.02;;;13.10;99.90;;;;;;5030621;28;20159;-80
2023/03/31 09:42:11;;;;;;;4.13;0.90;;;13.20;99.90;;;;;;5031933;28;20093;-81
2023/03/31 09:44:46;;;;;;;4.65;0.50;;;13.30;99.90;;;;;;5019716;28;20164;-80
2023/03/31 09:47:32;;;;;;;3.65;1.10;;;13.30;99.90;;;;;;5020974;28;20076;-80
2023/03/31 09:49:58;;;;;;;4.70;1.23;;;13.30;99.90;;;;;;5016011;28;20449;-79
2023/03/31 09:52:40;;;;;;;2.95;0.77;;;13.50;99.90;;;;;;5017191;28;20014;-80
2023/03/31 09:55:23;;;;;;;5.00;1.00;;;13.60;99.90;;;;;;5009494;28;20448;-80
2023/03/31 09:57:49;;;;;;;3.80;1.25;;;13.80;99.90;;;;;;5004897;28;20025;-79
2023/03/31 10:00:18;;;;;;;4.38;0.93;;;14.00;99.90;;;;;;5016239;28;20022;-80
2023/03/31 10:02:44;;;;;;;4.30;0.80;;;14.10;99.90;;;;;;5033397;28;20025;-80
2023/03/31 10:05:31;;;;;;;3.67;0.90;;;14.30;99.90;;;;;;5021471;28;20032;-81
2023/03/31 10:08:15;;;;;;;4.90;0.93;;;14.40;99.90;;;;;;5014467;28;20037;-81
2023/03/31 10:10:48;;;;;;;5.57;1.00;;;14.50;99.90;;;;;;4995392;22;20451;-77
2023/03/31 10:13:19;;;;;;;5.53;0.87;;;14.70;99.90;;;;;;4965180;28;20026;-78
2023/03/31 10:15:45;;;;;;;3.22;0.95;;;14.80;99.90;;;;;;4967286;28;20031;-75
2023/03/31 10:18:17;;;;;;;7.90;1.35;;;15.00;99.90;;;;;;4981239;28;20503;-77
2023/03/31 10:20:48;;;;;;;3.10;0.82;;;15.20;99.20;;;;;;4964774;28;20027;-75
2023/03/31 10:23:21;;;;;;;3.42;1.20;;;15.30;99.00;;;;;;4963481;28;20036;-74
2023/03/31 10:25:48;;;;;;;2.28;0.80;;;15.40;99.20;;;;;;4968949;28;20043;-76
2023/03/31 10:28:19;;;;;;;5.32;1.58;;;15.50;99.30;;;;;;4971749;28;20390;-76
2023/03/31 10:30:53;;;;;;;3.50;0.80;;;15.50;98.20;;;;;;4969977;28;20058;-75
2023/03/31 10:33:26;;;;;;;5.20;1.05;;;15.60;97.00;;;;;;4967468;28;20030;-76
2023/03/31 10:35:58;;;;;;;4.97;1.25;;;15.50;96.70;;;;;;4969816;28;20144;-77
2023/03/31 10:38:42;;;;;;;5.45;1.40;;;15.60;96.00;;;;;;4968145;28;20077;-76
2023/03/31 10:41:08;;;;;;;;;;;15.60;95.10;;;;;;4970002;28;20027;-77
2023/03/31 10:43:41;;;;;;;4.80;1.20;;;15.60;95.10;;;;;;4984084;28;19918;-76
2023/03/31 10:46:08;;;;;;;5.00;1.15;;;15.60;94.50;;;;;;4966613;28;20027;-76
2023/03/31 10:48:38;;;;;;;5.85;1.30;;;15.50;94.70;;;;;;4971531;28;20026;-76
2023/03/31 10:51:10;;;;;;;5.05;1.23;;;15.50;94.20;;;;;;4966892;28;20073;-77
2023/03/31 10:53:41;;;;;;;3.33;1.17;;;15.50;94.40;;;;;;4971012;28;20023;-76
2023/03/31 10:56:21;;;;;;;4.15;1.10;;;15.50;94.50;;;;;;4969024;28;20024;-77
2023/03/31 10:59:17;;;;;;;5.47;1.70;;;15.60;94.40;;;;;;4968649;28;20027;-76
2023/03/31 11:01:55;;;;;;;3.95;0.70;;;15.70;94.30;;;;;;4968188;28;20453;-76
2023/03/31 11:04:42;;;;;;;3.85;1.20;;;15.90;94.50;;;;;;4968766;28;20026;-77
2023/03/31 11:07:32;;;;;;;4.05;0.80;;;16.00;93.60;;;;;;4968793;28;20391;-76
2023/03/31 11:10:10;;;;;;;3.05;0.93;;;16.20;93.30;;;;;;4969327;28;20109;-77
2023/03/31 11:12:49;;;;;;;4.03;1.13;;;16.40;91.60;;;;;;4970178;28;20134;-77
2023/03/31 11:15:17;;;;;;;3.33;0.93;;;16.60;91.00;;;;;;4968144;28;20027;-76
2023/03/31 11:17:56;;;;;;;5.95;1.00;;;16.60;89.00;;;;;;4966401;28;20222;-77
2023/03/31 11:20:25;;;;;;;4.30;0.80;;;16.60;89.70;;;;;;4984272;28;20019;-77
2023/03/31 11:23:06;;;;;;;3.40;1.30;;;16.50;88.30;;;;;;4969209;28;20089;-77
2023/03/31 11:25:42;;;;;;;7.72;1.13;;;16.30;89.30;;;;;;4968321;28;20027;-76
2023/03/31 11:28:40;;;;;;;7.55;0.82;;;16.10;91.00;;;;;;4972361;28;20597;-77
2023/03/31 11:31:22;;;;;;;5.90;0.68;;;14.70;98.60;;;;;;4965784;28;20035;-76
2023/03/31 11:34:15;;;;;;;2.53;0.52;;;13.50;99.90;;;;;;4966606;28;20492;-76
2023/03/31 11:37:22;;;;;;;3.00;0.40;;;12.80;99.90;;;;;;4967452;28;20027;-76
2023/03/31 11:40:04;;;;;;;2.92;0.57;;;12.00;99.90;;;;;;4960551;28;20034;-76
2023/03/31 11:42:49;;;;;;;3.83;0.82;;;11.40;99.90;;;;;;4970190;28;20041;-76
2023/03/31 11:45:20;;;;;;;0.90;0.50;;;10.90;99.90;;;;;;4967017;28;20023;-76
2023/03/31 11:47:49;;;;;;;2.63;0.55;;;10.60;99.90;;;;;;4965143;28;20030;-76
2023/03/31 11:50:23;;;;;;;0.95;0.28;;;10.40;99.90;;;;;;4964366;28;20057;-76
2023/03/31 11:53:04;;;;;;;;;;;10.20;99.90;;;;;;4967868;28;20504;-76
2023/03/31 11:55:42;;;;;;;1.67;0.25;;;10.20;99.90;;;;;;4967047;28;19933;-76
2023/03/31 11:58:43;;;;;;;1.52;0.82;;;10.10;99.90;;;;;;4963596;28;20038;-76
2023/03/31 12:01:16;;;;;;;2.60;0.38;;;10.10;99.90;;;;;;4968009;28;20031;-77
2023/03/31 12:04:03;;;;;;;0.57;0.30;;;10.30;99.90;;;;;;4965928;28;20030;-76
2023/03/31 12:06:32;;;;;;;1.35;0.20;;;10.30;99.90;;;;;;4965715;28;20199;-76
2023/03/31 12:09:05;;;;;;;0.95;0.40;;;10.40;99.90;;;;;;4966260;28;20014;-75
2023/03/31 12:11:51;;;;;;;3.17;0.40;;;10.50;99.90;;;;;;4967266;28;20034;-76
2023/03/31 12:14:35;;;;;;;1.52;0.35;;;10.60;99.90;;;;;;4969508;28;20101;-76
2023/03/31 12:17:11;;;;;;;2.78;0.60;;;10.60;99.90;;;;;;4969328;28;20039;-75
2023/03/31 12:19:47;;;;;;;1.08;0.65;;;10.60;99.90;;;;;;4968547;28;20038;-76
2023/03/31 12:22:21;;;;;;;1.42;0.43;;;10.50;99.90;;;;;;4967875;28;20134;-75
2023/03/31 12:24:46;;;;;;;0.50;0.30;;;10.50;99.90;;;;;;4967330;28;20113;-75
2023/03/31 12:27:26;;;;;;;2.20;0.40;;;10.40;99.90;;;;;;4969525;28;20189;-75
2023/03/31 12:30:09;;;;;;;2.20;0.47;;;10.50;99.90;;;;;;4969057;28;20022;-75
2023/03/31 12:32:44;;;;;;;2.83;0.40;;;10.60;99.90;;;;;;4984556;28;20177;-75
2023/03/31 12:35:21;;;;;;;1.13;0.30;;;10.70;99.90;;;;;;4966176;28;20049;-75
2023/03/31 12:38:05;;;;;;;3.13;0.50;;;10.70;99.90;;;;;;4970206;28;20633;-76
2023/03/31 12:40:45;;;;;;;2.58;0.90;;;10.90;99.90;;;;;;4959758;28;20109;-75
2023/03/31 12:44:02;;;;;;;1.92;0.60;;;11.00;99.90;;;;;;4964712;28;20033;-75
2023/03/31 12:46:36;;;;;;;4.90;0.73;;;11.10;99.90;;;;;;4944987;28;20377;-75
2023/03/31 12:49:31;;;;;;;3.15;0.82;;;11.20;99.90;;;;;;4971052;28;20046;-75
2023/03/31 12:51:59;;;;;;;;;;;11.30;99.90;;;;;;4962257;28;20470;-75
2023/03/31 12:55:03;;;;;;;3.35;0.80;;;11.40;99.90;;;;;;4971825;28;20024;-75
2023/03/31 12:57:32;;;;;;;2.47;0.60;;;11.50;99.90;;;;;;4970317;28;20507;-75
2023/03/31 13:00:09;;;;;;;3.50;0.70;;;11.70;99.90;;;;;;4984288;28;20505;-75
2023/03/31 13:02:35;;;;;;;4.55;1.00;;;11.90;99.90;;;;;;4972823;28;20505;-75
2023/03/31 13:05:39;;;;;;;1.15;0.50;;;11.90;99.90;;;;;;4970304;28;20031;-75
2023/03/31 13:08:07;;;;;;;6.35;0.98;;;12.00;99.90;;;;;;4964014;28;20077;-74
2023/03/31 13:10:53;;;;;;;10.45;1.15;;;12.10;99.90;;;;;;4964060;28;20089;-75
2023/03/31 13:13:21;;;;;;;4.28;0.98;;;12.20;99.90;;;;;;4970869;28;20035;-75
2023/03/31 13:15:53;;;;;;;4.00;1.13;;;12.40;99.90;;;;;;4968984;28;20026;-75